createdAt,value
2018-12-19T00:00:20.533Z,11.60
2018-12-19T00:02:52.210Z,10.77
2018-12-19T00:05:23.719Z,13.63
2018-12-19T00:07:55.328Z,12.83
2018-12-19T00:10:26.827Z,16.93
2018-12-19T00:12:58.429Z,14.53
2018-12-19T00:15:29.933Z,16.50
2018-12-19T00:18:01.444Z,15.10
2018-12-19T00:20:32.936Z,16.07
2018-12-19T00:23:04.711Z,16.33
2018-12-19T00:25:36.236Z,15.53
2018-12-19T00:28:07.829Z,15.97
2018-12-19T00:30:39.423Z,14.30
2018-12-19T00:33:10.921Z,12.83
2018-12-19T00:35:42.354Z,17.67
2018-12-19T00:38:13.900Z,14.40
2018-12-19T00:40:45.325Z,16.20
2018-12-19T00:43:16.923Z,12.97
2018-12-19T00:45:48.531Z,15.37
2018-12-19T00:48:20.104Z,14.53
2018-12-19T00:50:51.694Z,15.30
2018-12-19T00:53:23.141Z,16.87
2018-12-19T00:55:54.838Z,18.07
2018-12-19T00:58:26.438Z,16.13
2018-12-19T01:00:57.999Z,18.53
2018-12-19T01:03:29.420Z,14.30
2018-12-19T01:06:01.023Z,15.47
2018-12-19T01:08:32.615Z,15.10
2018-12-19T01:11:04.189Z,13.77
2018-12-19T01:13:35.764Z,11.77
2018-12-19T01:16:07.227Z,10.03
2018-12-19T01:18:38.781Z,11.87
2018-12-19T01:21:10.237Z,10.07
2018-12-19T01:23:41.788Z,13.30
2018-12-19T01:26:13.291Z,14.63
2018-12-19T01:28:44.897Z,18.97
2018-12-19T01:31:16.505Z,16.03
2018-12-19T01:33:48.018Z,16.30
2018-12-19T01:36:19.540Z,15.43
2018-12-19T01:38:51.818Z,16.47
2018-12-19T01:41:23.287Z,15.43
2018-12-19T01:43:54.833Z,13.83
2018-12-19T01:46:26.310Z,17.10
2018-12-19T01:48:57.821Z,16.27
2018-12-19T01:51:29.333Z,16.77
2018-12-19T01:54:00.834Z,15.57
2018-12-19T01:56:32.294Z,18.03
2018-12-19T01:59:03.842Z,16.30
2018-12-19T02:01:35.300Z,17.13
2018-12-19T02:04:06.948Z,15.53
2018-12-19T02:06:38.407Z,14.53
2018-12-19T02:09:10.572Z,15.03
2018-12-19T02:11:42.077Z,14.77
2018-12-19T02:14:13.580Z,14.77
2018-12-19T02:16:45.129Z,12.27
2018-12-19T02:19:16.585Z,13.93
2018-12-19T02:21:48.132Z,10.47
2018-12-19T02:24:19.546Z,10.00
2018-12-19T02:26:51.143Z,15.03
2018-12-19T02:29:22.597Z,17.23
2018-12-19T02:31:54.134Z,15.00
2018-12-19T02:34:25.597Z,16.23
2018-12-19T02:36:57.206Z,17.23
2018-12-19T02:39:28.615Z,14.37
2018-12-19T02:42:00.148Z,13.63
2018-12-19T02:44:31.677Z,10.67
2018-12-19T02:47:03.260Z,10.67
2018-12-19T02:49:39.778Z,14.50
2018-12-19T02:52:11.378Z,12.83
2018-12-19T02:54:42.961Z,15.07
2018-12-19T02:57:14.397Z,10.90
2018-12-19T02:59:46.001Z,14.87
2018-12-19T03:02:17.517Z,13.20
2018-12-19T03:04:49.054Z,14.53
2018-12-19T03:07:20.519Z,11.27
2018-12-19T03:09:52.115Z,10.07
2018-12-19T03:12:23.619Z,11.93
2018-12-19T03:14:55.215Z,9.47
2018-12-19T03:17:26.625Z,9.90
2018-12-19T03:19:58.232Z,10.77
2018-12-19T03:22:29.735Z,8.90
2018-12-19T03:25:01.269Z,6.53
2018-12-19T03:27:32.740Z,16.27
2018-12-19T03:30:04.348Z,14.37
2018-12-19T03:32:35.843Z,17.10
2018-12-19T03:35:07.518Z,18.17
2018-12-19T03:37:38.960Z,19.10
2018-12-19T03:40:10.505Z,15.10
2018-12-19T03:42:41.908Z,12.33
2018-12-19T03:45:13.506Z,13.03
2018-12-19T03:47:45.050Z,11.87
2018-12-19T03:50:16.585Z,12.07
2018-12-19T03:52:48.220Z,10.97
2018-12-19T03:55:19.788Z,12.03
2018-12-19T03:57:51.448Z,15.10
2018-12-19T04:00:22.948Z,11.43
2018-12-19T04:02:54.541Z,16.17
2018-12-19T04:05:27.091Z,18.10
2018-12-19T04:07:58.633Z,22.63
2018-12-19T04:10:30.325Z,26.67
2018-12-19T04:13:01.955Z,21.77
2018-12-19T04:15:33.589Z,28.10
2018-12-19T04:18:05.008Z,25.87
2018-12-19T04:20:36.605Z,27.23
2018-12-19T04:23:08.095Z,25.97
2018-12-19T04:25:39.704Z,24.90
2018-12-19T04:28:11.310Z,28.23
2018-12-19T04:30:42.920Z,28.40
2018-12-19T04:33:14.461Z,28.07
2018-12-19T04:35:46.236Z,32.47
2018-12-19T04:38:17.819Z,24.00
2018-12-19T04:40:49.210Z,26.77
2018-12-19T04:43:20.767Z,28.23
2018-12-19T04:45:52.391Z,27.77
2018-12-19T04:48:23.905Z,27.03
2018-12-19T04:50:55.508Z,24.70
2018-12-19T04:53:27.004Z,30.33
2018-12-19T04:55:58.608Z,24.90
2018-12-19T04:58:30.123Z,26.90
2018-12-19T05:01:01.717Z,26.07
2018-12-19T05:03:33.225Z,26.03
2018-12-19T05:06:04.784Z,26.70
2018-12-19T05:08:36.324Z,28.07
2018-12-19T05:11:07.840Z,27.90
2018-12-19T05:13:39.329Z,27.97
2018-12-19T05:16:10.979Z,28.37
2018-12-19T05:18:42.444Z,27.67
2018-12-19T05:21:13.991Z,25.87
2018-12-19T05:23:45.458Z,22.80
2018-12-19T05:26:17.008Z,23.47
2018-12-19T05:28:48.456Z,21.17
2018-12-19T05:31:19.992Z,16.47
2018-12-19T05:33:51.468Z,24.00
2018-12-19T05:36:23.008Z,20.57
2018-12-19T05:38:55.134Z,17.67
2018-12-19T05:41:26.630Z,16.47
2018-12-19T05:43:58.231Z,14.37
2018-12-19T05:46:29.752Z,22.50
2018-12-19T05:49:01.148Z,21.87
2018-12-19T05:51:32.828Z,22.63
2018-12-19T05:54:04.341Z,23.57
2018-12-19T05:56:36.053Z,17.63
2018-12-19T05:59:07.480Z,18.67
2018-12-19T06:01:39.073Z,20.13
2018-12-19T06:04:10.556Z,20.03
2018-12-19T06:06:42.164Z,19.27
2018-12-19T06:09:13.809Z,14.40
2018-12-19T06:11:45.479Z,19.80
2018-12-19T06:14:16.883Z,14.40
2018-12-19T06:16:48.478Z,19.37
2018-12-19T06:19:19.947Z,19.77
2018-12-19T06:21:51.543Z,20.40
2018-12-19T06:24:23.090Z,16.87
2018-12-19T06:26:54.757Z,18.17
2018-12-19T06:29:26.255Z,16.07
2018-12-19T06:31:57.801Z,15.87
2018-12-19T06:34:29.356Z,16.40
2018-12-19T06:37:00.964Z,24.50
2018-12-19T06:39:32.568Z,19.73
2018-12-19T06:42:04.179Z,22.43
2018-12-19T06:44:35.702Z,21.87
2018-12-19T06:47:07.087Z,21.50
2018-12-19T06:49:38.814Z,17.47
2018-12-19T06:52:10.283Z,18.20
2018-12-19T06:54:41.785Z,21.40
2018-12-19T06:57:13.201Z,25.90
2018-12-19T06:59:44.792Z,23.37
2018-12-19T07:02:16.237Z,24.53
2018-12-19T07:04:47.894Z,21.73
2018-12-19T07:07:19.368Z,23.93
2018-12-19T07:09:51.016Z,24.93
2018-12-19T07:12:22.560Z,20.73
2018-12-19T07:14:54.131Z,21.90
2018-12-19T07:17:25.651Z,24.10
2018-12-19T07:19:57.134Z,25.93
2018-12-19T07:22:28.732Z,23.50
2018-12-19T07:25:00.247Z,22.40
2018-12-19T07:27:31.790Z,25.23
2018-12-19T07:30:03.265Z,25.50
2018-12-19T07:32:34.777Z,22.90
2018-12-19T07:35:06.642Z,21.73
2018-12-19T07:37:38.197Z,20.40
2018-12-19T07:40:09.617Z,26.33
2018-12-19T07:42:41.208Z,27.97
2018-12-19T07:45:12.820Z,29.13
2018-12-19T07:47:44.324Z,26.73
2018-12-19T07:50:15.824Z,30.00
2018-12-19T07:52:47.696Z,25.33
2018-12-19T07:55:19.284Z,25.67
2018-12-19T07:57:50.703Z,24.20
2018-12-19T08:00:27.466Z,24.93
2018-12-19T08:02:55.888Z,29.13
2018-12-19T08:05:27.320Z,25.40
2018-12-19T08:07:58.900Z,25.20
2018-12-19T08:10:30.400Z,26.33
2018-12-19T08:13:01.895Z,25.10
2018-12-19T08:15:33.346Z,25.47
2018-12-19T08:18:05.675Z,29.73
2018-12-19T08:20:37.389Z,27.47
2018-12-19T08:23:08.826Z,28.80
2018-12-19T08:25:40.401Z,26.77
2018-12-19T08:28:11.906Z,22.57
2018-12-19T08:30:43.412Z,24.33
2018-12-19T08:33:15.012Z,28.60
2018-12-19T08:35:46.516Z,25.13
2018-12-19T08:38:18.196Z,28.73
2018-12-19T08:40:49.760Z,22.57
2018-12-19T08:43:21.132Z,25.27
2018-12-19T08:45:53.232Z,24.67
2018-12-19T08:48:25.000Z,25.93
2018-12-19T08:50:56.955Z,24.23
2018-12-19T08:53:28.647Z,17.37
2018-12-19T08:56:00.264Z,20.87
2018-12-19T08:58:31.682Z,24.03
2018-12-19T09:01:03.284Z,24.40
2018-12-19T09:03:34.696Z,24.10
2018-12-19T09:06:06.491Z,24.13
2018-12-19T09:08:38.032Z,22.97
2018-12-19T09:11:09.593Z,18.80
2018-12-19T09:13:41.010Z,27.47
2018-12-19T09:16:12.591Z,25.70
2018-12-19T09:18:44.165Z,24.63
2018-12-19T09:21:15.704Z,25.10
2018-12-19T09:23:47.316Z,23.13
2018-12-19T09:26:21.678Z,25.83
2018-12-19T09:28:53.189Z,21.03
2018-12-19T09:31:24.780Z,24.57
2018-12-19T09:33:56.405Z,27.33
2018-12-19T09:36:27.895Z,23.23
2018-12-19T09:38:59.498Z,14.97
2018-12-19T09:41:31.009Z,24.00
2018-12-19T09:44:02.407Z,23.20
2018-12-19T09:46:34.113Z,19.67
2018-12-19T09:49:12.220Z,22.77
2018-12-19T09:51:39.176Z,21.97
2018-12-19T09:54:10.715Z,18.17
2018-12-19T09:56:42.370Z,23.27
2018-12-19T09:59:13.926Z,22.00
2018-12-19T10:01:45.442Z,19.87
2018-12-19T10:04:17.083Z,23.67
2018-12-19T10:06:48.644Z,25.57
2018-12-19T10:09:20.252Z,25.63
2018-12-19T10:11:51.897Z,29.60
2018-12-19T10:14:23.458Z,26.20
2018-12-19T10:16:58.448Z,24.40
2018-12-19T10:19:29.936Z,23.73
2018-12-19T10:22:01.487Z,23.30
2018-12-19T10:24:38.218Z,25.93
2018-12-19T10:27:11.882Z,25.63
2018-12-19T10:29:43.371Z,23.50
2018-12-19T10:32:14.880Z,28.23
2018-12-19T10:34:46.502Z,27.07
2018-12-19T10:37:17.997Z,27.80
2018-12-19T10:39:49.801Z,29.60
2018-12-19T10:42:21.308Z,23.20
2018-12-19T10:44:52.901Z,26.27
2018-12-19T10:47:24.418Z,25.37
2018-12-19T10:49:56.024Z,28.23
2018-12-19T10:52:27.632Z,29.30
2018-12-19T10:54:59.122Z,23.50
2018-12-19T10:57:30.844Z,29.97
2018-12-19T11:00:02.372Z,25.83
2018-12-19T11:02:33.851Z,29.03
2018-12-19T11:05:05.725Z,26.93
2018-12-19T11:07:37.156Z,28.30
2018-12-19T11:10:09.771Z,29.13
2018-12-19T11:12:41.282Z,30.87
2018-12-19T11:15:12.699Z,33.30
2018-12-19T11:17:44.345Z,28.57
2018-12-19T11:20:15.910Z,30.93
2018-12-19T11:22:47.504Z,31.07
2018-12-19T11:25:19.112Z,28.20
2018-12-19T11:27:50.603Z,27.93
2018-12-19T11:30:22.024Z,31.93
2018-12-19T11:32:53.610Z,29.80
2018-12-19T11:35:25.215Z,27.80
2018-12-19T11:37:56.716Z,24.47
2018-12-19T11:40:28.337Z,30.27
2018-12-19T11:42:59.840Z,27.93
2018-12-19T11:45:31.438Z,27.80
2018-12-19T11:48:02.952Z,25.00
2018-12-19T11:50:34.548Z,32.10
2018-12-19T11:53:06.052Z,29.43
2018-12-19T11:55:37.695Z,32.87
2018-12-19T11:58:09.161Z,31.63
2018-12-19T12:00:40.800Z,32.60
2018-12-19T12:03:12.369Z,31.23
2018-12-19T12:05:43.914Z,31.23
2018-12-19T12:08:15.444Z,32.13
2018-12-19T12:10:47.016Z,29.50
2018-12-19T12:13:18.420Z,31.60
2018-12-19T12:15:50.124Z,34.97
2018-12-19T12:18:21.536Z,29.53
2018-12-19T12:20:53.117Z,30.63
2018-12-19T12:23:24.536Z,28.43
2018-12-19T12:25:56.044Z,28.37
2018-12-19T12:28:27.545Z,30.97
2018-12-19T12:30:59.143Z,30.27
2018-12-19T12:33:30.684Z,30.87
2018-12-19T12:36:02.608Z,31.57
2018-12-19T12:38:34.440Z,29.47
2018-12-19T12:41:06.066Z,31.63
2018-12-19T12:43:37.628Z,33.53
2018-12-19T12:46:09.252Z,32.37
2018-12-19T12:48:40.751Z,32.77
2018-12-19T12:51:12.350Z,30.77
2018-12-19T12:53:43.864Z,29.47
2018-12-19T12:56:15.404Z,32.07
2018-12-19T12:58:46.861Z,37.20
2018-12-19T13:01:18.500Z,33.27
2018-12-19T13:03:49.960Z,32.67
2018-12-19T13:06:21.524Z,28.80
2018-12-19T13:08:53.020Z,31.83
2018-12-19T13:11:24.710Z,26.23
2018-12-19T13:13:56.147Z,31.83
2018-12-19T13:16:27.717Z,29.83
2018-12-19T13:18:59.341Z,28.10
2018-12-19T13:21:31.188Z,31.63
2018-12-19T13:24:02.692Z,35.97
2018-12-19T13:26:34.158Z,35.83
2018-12-19T13:29:05.697Z,35.27
2018-12-19T13:31:37.158Z,34.17
2018-12-19T13:34:08.770Z,32.10
2018-12-19T13:36:40.272Z,32.40
2018-12-19T13:39:11.882Z,34.37
2018-12-19T13:41:43.381Z,33.50
2018-12-19T13:44:16.198Z,36.33
2018-12-19T13:46:47.912Z,35.43
2018-12-19T13:49:19.453Z,32.63
2018-12-19T13:51:51.029Z,34.67
2018-12-19T13:54:22.418Z,32.33
2018-12-19T13:56:54.015Z,32.30
2018-12-19T13:59:25.574Z,31.23
2018-12-19T14:01:57.119Z,33.10
2018-12-19T14:04:29.082Z,34.73
2018-12-19T14:07:01.230Z,32.43
2018-12-19T14:09:32.923Z,26.37
2018-12-19T14:12:04.573Z,30.37
2018-12-19T14:14:36.221Z,32.93
2018-12-19T14:17:07.776Z,31.60
2018-12-19T14:19:39.492Z,33.27
2018-12-19T14:22:11.009Z,39.57
2018-12-19T14:24:42.461Z,32.20
2018-12-19T14:27:14.101Z,32.67
2018-12-19T14:29:45.717Z,31.63
2018-12-19T14:32:17.220Z,29.13
2018-12-19T14:34:49.176Z,32.70
2018-12-19T14:37:20.588Z,30.30
2018-12-19T14:39:52.165Z,33.37
2018-12-19T14:42:23.633Z,33.03
2018-12-19T14:44:55.479Z,34.67
2018-12-19T14:47:27.104Z,33.63
2018-12-19T14:49:58.608Z,33.20
2018-12-19T14:52:30.243Z,29.67
2018-12-19T14:55:01.711Z,35.27
2018-12-19T14:57:33.318Z,31.67
2018-12-19T15:00:05.668Z,31.93
2018-12-19T15:02:37.089Z,33.73
2018-12-19T15:05:08.636Z,25.90
2018-12-19T15:07:40.090Z,29.70
2018-12-19T15:10:11.857Z,36.77
2018-12-19T15:12:43.513Z,31.57
2018-12-19T15:15:15.158Z,34.33
2018-12-19T15:17:46.777Z,34.07
2018-12-19T15:20:18.281Z,31.40
2018-12-19T15:22:49.881Z,26.03
2018-12-19T15:25:21.390Z,32.93
2018-12-19T15:27:52.989Z,32.07
2018-12-19T15:30:24.500Z,29.53
2018-12-19T15:32:56.136Z,31.03
2018-12-19T15:35:27.608Z,37.80
2018-12-19T15:37:59.146Z,32.53
2018-12-19T15:40:30.600Z,31.50
2018-12-19T15:43:02.143Z,32.50
2018-12-19T15:45:33.606Z,33.67
2018-12-19T15:48:05.212Z,31.43
2018-12-19T15:50:36.720Z,31.73
2018-12-19T15:53:08.264Z,35.83
2018-12-19T15:55:39.720Z,35.23
2018-12-19T15:58:11.333Z,35.43
2018-12-19T16:00:42.834Z,35.33
2018-12-19T16:03:14.379Z,30.90
2018-12-19T16:05:45.834Z,35.97
2018-12-19T16:08:17.434Z,32.43
2018-12-19T16:10:49.050Z,30.97
2018-12-19T16:13:20.587Z,36.70
2018-12-19T16:15:52.056Z,35.00
2018-12-19T16:18:23.593Z,33.33
2018-12-19T16:20:55.238Z,34.53
2018-12-19T16:23:26.800Z,33.00
2018-12-19T16:25:58.381Z,34.90
2018-12-19T16:28:29.905Z,33.90
2018-12-19T16:31:01.365Z,35.80
2018-12-19T16:33:32.919Z,37.13
2018-12-19T16:36:04.386Z,37.47
2018-12-19T16:38:35.986Z,38.60
2018-12-19T16:41:07.497Z,34.87
2018-12-19T16:43:39.089Z,37.97
2018-12-19T16:46:10.599Z,35.33
2018-12-19T16:48:42.194Z,31.10
2018-12-19T16:51:13.716Z,35.87
2018-12-19T16:53:45.252Z,33.80
2018-12-19T16:56:16.707Z,29.27
2018-12-19T16:58:48.304Z,31.67
2018-12-19T17:01:19.919Z,35.27
2018-12-19T17:03:51.556Z,35.30
2018-12-19T17:06:22.988Z,32.57
2018-12-19T17:08:54.568Z,32.73
2018-12-19T17:11:26.080Z,32.00
2018-12-19T17:13:57.679Z,31.10
2018-12-19T17:16:29.092Z,32.40
2018-12-19T17:19:00.690Z,30.93
2018-12-19T17:21:32.301Z,34.10
2018-12-19T17:24:03.811Z,30.93
2018-12-19T17:26:35.320Z,31.53
2018-12-19T17:29:06.903Z,30.77
2018-12-19T17:31:38.514Z,35.07
2018-12-19T17:34:10.020Z,29.50
2018-12-19T17:36:41.620Z,27.50
2018-12-19T17:39:13.129Z,27.77
2018-12-19T17:41:44.663Z,29.00
2018-12-19T17:44:16.229Z,30.13
2018-12-19T17:46:47.836Z,26.60
2018-12-19T17:49:19.349Z,32.60
2018-12-19T17:51:50.949Z,31.67
2018-12-19T17:54:22.446Z,26.83
2018-12-19T17:56:54.053Z,28.13
2018-12-19T17:59:25.535Z,26.70
2018-12-19T18:01:57.267Z,31.50
2018-12-19T18:04:28.716Z,27.00
2018-12-19T18:07:00.303Z,29.60
2018-12-19T18:09:31.821Z,31.43
2018-12-19T18:12:03.515Z,31.27
2018-12-19T18:14:35.137Z,29.17
2018-12-19T18:17:06.645Z,27.90
2018-12-19T18:19:38.244Z,31.80
2018-12-19T18:22:09.745Z,32.50
2018-12-19T18:24:41.299Z,31.57
2018-12-19T18:27:12.761Z,33.57
2018-12-19T18:29:44.391Z,30.30
2018-12-19T18:32:15.870Z,29.27
2018-12-19T18:34:48.186Z,36.30
2018-12-19T18:37:19.767Z,31.07
2018-12-19T18:39:51.184Z,33.90
2018-12-19T18:42:23.086Z,27.30
2018-12-19T18:44:54.700Z,31.70
2018-12-19T18:47:26.209Z,35.53
2018-12-19T18:49:57.762Z,29.50
2018-12-19T18:52:29.207Z,30.83
2018-12-19T18:55:00.748Z,29.57
2018-12-19T18:57:32.226Z,32.43
2018-12-19T19:00:04.425Z,34.80
2018-12-19T19:02:36.230Z,29.50
2018-12-19T19:05:08.090Z,37.77
2018-12-19T19:07:39.698Z,29.73
2018-12-19T19:10:11.680Z,35.90
2018-12-19T19:12:43.430Z,33.13
2018-12-19T19:15:15.017Z,35.77
2018-12-19T19:17:46.636Z,35.57
2018-12-19T19:20:18.165Z,34.50
2018-12-19T19:22:49.561Z,30.90
2018-12-19T19:25:21.137Z,33.93
2018-12-19T19:27:52.590Z,31.60
2018-12-19T19:30:24.151Z,38.60
2018-12-19T19:32:55.564Z,32.20
2018-12-19T19:35:27.164Z,28.70
2018-12-19T19:37:58.777Z,33.67
2018-12-19T19:40:30.497Z,35.43
2018-12-19T19:43:02.083Z,34.63
2018-12-19T19:45:33.586Z,30.37
2018-12-19T19:48:05.126Z,31.57
2018-12-19T19:50:36.592Z,32.53
2018-12-19T19:53:08.191Z,34.10
2018-12-19T19:55:39.690Z,31.50
2018-12-19T19:58:11.351Z,32.00
2018-12-19T20:00:42.804Z,34.40
2018-12-19T20:03:14.340Z,26.63
2018-12-19T20:05:45.818Z,36.07
2018-12-19T20:08:17.351Z,32.70
2018-12-19T20:10:48.821Z,33.97
2018-12-19T20:13:20.365Z,31.07
2018-12-19T20:15:51.948Z,37.77
2018-12-19T20:18:23.535Z,34.77
2018-12-19T20:20:55.089Z,38.97
2018-12-19T20:23:26.744Z,34.97
2018-12-19T20:25:58.239Z,37.20
2018-12-19T20:28:29.780Z,36.77
2018-12-19T20:31:01.413Z,31.90
2018-12-19T20:33:32.999Z,34.70
2018-12-19T20:36:04.424Z,32.23
2018-12-19T20:38:36.208Z,36.80
2018-12-19T20:41:07.821Z,33.97
2018-12-19T20:43:40.021Z,36.00
2018-12-19T20:46:11.844Z,39.37
2018-12-19T20:48:43.539Z,35.50
2018-12-19T20:51:14.967Z,33.10
2018-12-19T20:53:46.555Z,37.73
2018-12-19T20:56:18.162Z,33.37
2018-12-19T20:58:49.788Z,36.43
2018-12-19T21:01:21.190Z,35.63
2018-12-19T21:03:52.764Z,34.57
2018-12-19T21:06:24.375Z,37.93
2018-12-19T21:08:55.889Z,35.77
2018-12-19T21:11:27.738Z,32.87
2018-12-19T21:13:59.324Z,31.70
2018-12-19T21:16:35.695Z,35.97
2018-12-19T21:19:07.120Z,36.30
2018-12-19T21:21:38.760Z,33.03
2018-12-19T21:24:10.241Z,34.63
2018-12-19T21:26:41.763Z,34.10
2018-12-19T21:29:13.800Z,34.43
2018-12-19T21:31:45.297Z,35.97
2018-12-19T21:34:16.909Z,28.63
2018-12-19T21:36:48.530Z,35.90
2018-12-19T21:39:19.896Z,39.23
2018-12-19T21:41:51.513Z,36.90
2018-12-19T21:44:23.157Z,35.10
2018-12-19T21:46:55.183Z,40.23
2018-12-19T21:49:26.688Z,32.40
2018-12-19T21:51:58.222Z,34.97
2018-12-19T21:54:29.849Z,41.60
2018-12-19T21:57:02.921Z,37.13
2018-12-19T21:59:34.898Z,37.77
2018-12-19T22:02:07.055Z,33.67
2018-12-19T22:04:38.748Z,39.20
2018-12-19T22:07:10.334Z,39.90
2018-12-19T22:09:41.873Z,36.53
2018-12-19T22:12:13.323Z,42.47
2018-12-19T22:14:45.117Z,37.83
2018-12-19T22:17:21.751Z,37.07
2018-12-19T22:19:53.222Z,38.10
2018-12-19T22:22:24.817Z,41.60
2018-12-19T22:24:56.630Z,37.27
2018-12-19T22:27:28.270Z,30.17
2018-12-19T22:29:59.832Z,35.30
2018-12-19T22:32:31.387Z,36.13
2018-12-19T22:35:02.877Z,39.80
2018-12-19T22:37:34.549Z,34.53
2018-12-19T22:40:07.678Z,40.83
2018-12-19T22:42:39.156Z,31.57
2018-12-19T22:45:10.771Z,38.27
2018-12-19T22:47:42.252Z,34.63
2018-12-19T22:50:13.902Z,33.97
2018-12-19T22:52:45.617Z,32.23
2018-12-19T22:55:16.976Z,26.10
2018-12-19T22:57:48.472Z,33.07
2018-12-19T23:00:20.825Z,33.57
2018-12-19T23:02:57.535Z,34.40
2018-12-19T23:05:34.091Z,34.73
2018-12-19T23:08:05.696Z,32.70
2018-12-19T23:10:37.233Z,32.97
2018-12-19T23:13:08.515Z,36.10
2018-12-19T23:15:40.203Z,35.83
2018-12-19T23:18:16.820Z,32.30
2018-12-19T23:20:48.296Z,33.80
2018-12-19T23:23:19.938Z,31.20
2018-12-19T23:25:51.787Z,33.63
2018-12-19T23:28:23.313Z,32.03
2018-12-19T23:30:54.851Z,33.13
2018-12-19T23:33:26.362Z,35.60
2018-12-19T23:35:58.282Z,31.53
2018-12-19T23:38:29.813Z,35.87
2018-12-19T23:41:01.476Z,36.37
2018-12-19T23:43:33.080Z,35.70
2018-12-19T23:46:04.689Z,35.93
2018-12-19T23:48:36.793Z,36.67
2018-12-19T23:51:08.460Z,32.53
2018-12-19T23:53:39.991Z,33.40
2018-12-19T23:56:11.530Z,30.00
2018-12-19T23:58:43.071Z,35.00
